Time;durP1;ratioP1;P1;durP2;ratioP2;P2;SDS_P1;SDS_P2;PMS_P1;PMS_P2;Temp;Humidity;BMP_temperature;BMP_pressure;BME280_temperature;BME280_humidity;BME280_pressure;Samples;Min_cycle;Max_cycle;Signal;HPM_P1;HPM_P2
2021/04/28 00:00:59;;;;;;;;;;;22.40;33.60;;;;;;1574098;74;739;-63
2021/04/28 00:03:02;;;;;;;;;;;22.50;33.60;;;;;;1557608;74;1112;-64
2021/04/28 00:05:05;;;;;;;;;;;22.50;33.50;;;;;;1571048;74;1947;-63
2021/04/28 00:07:07;;;;;;;;;;;22.50;33.50;;;;;;1576410;74;724;-62
2021/04/28 00:09:09;;;;;;;;;;;22.60;33.60;;;;;;1561350;74;792;-63
2021/04/28 00:11:11;;;;;;;;;;;22.50;33.70;;;;;;1574582;74;718;-63
2021/04/28 00:13:14;;;;;;;;;;;22.50;33.80;;;;;;1569450;74;1137;-63
2021/04/28 00:15:17;;;;;;;;;;;22.50;33.80;;;;;;1571241;74;755;-62
2021/04/28 00:17:19;;;;;;;;;;;22.50;33.80;;;;;;1586835;74;797;-64
2021/04/28 00:19:21;;;;;;;;;;;22.60;33.80;;;;;;1574170;74;757;-64
2021/04/28 00:21:22;;;;;;;;;;;22.60;33.80;;;;;;1574530;74;838;-63
2021/04/28 00:23:24;;;;;;;;;;;22.60;33.80;;;;;;1562042;74;1121;-63
2021/04/28 00:25:26;;;;;;;;;;;22.60;33.80;;;;;;1573408;74;1955;-64
2021/04/28 00:27:28;;;;;;;;;;;22.60;33.90;;;;;;1567975;74;737;-63
2021/04/28 00:29:32;;;;;;;;;;;22.60;33.80;;;;;;1566262;74;776;-63
2021/04/28 00:31:33;;;;;;;;;;;22.60;33.80;;;;;;1572008;74;746;-63
2021/04/28 00:33:35;;;;;;;;;;;22.60;33.90;;;;;;1565871;74;1156;-64
2021/04/28 00:35:37;;;;;;;;;;;22.60;33.90;;;;;;1574583;74;762;-64
2021/04/28 00:37:39;;;;;;;;;;;22.60;33.80;;;;;;1577360;74;945;-63
2021/04/28 00:39:41;;;;;;;;;;;22.60;33.80;;;;;;1567985;74;745;-63
2021/04/28 00:41:43;;;;;;;;;;;22.60;33.80;;;;;;1564485;74;763;-63
2021/04/28 00:43:46;;;;;;;;;;;22.60;33.70;;;;;;1565857;74;1199;-63
2021/04/28 00:45:48;;;;;;;;;;;22.60;33.70;;;;;;1569972;74;1933;-63
2021/04/28 00:47:49;;;;;;;;;;;22.60;33.70;;;;;;1566423;74;736;-63
2021/04/28 00:49:51;;;;;;;;;;;22.60;33.70;;;;;;1573519;74;772;-63
2021/04/28 00:51:53;;;;;;;;;;;22.50;33.70;;;;;;1563845;74;736;-63
2021/04/28 00:53:55;;;;;;;;;;;22.60;33.80;;;;;;1571206;74;1082;-63
2021/04/28 00:55:57;;;;;;;;;;;22.60;33.70;;;;;;1569325;74;680;-64
2021/04/28 00:57:59;;;;;;;;;;;22.60;33.70;;;;;;1570332;74;753;-63
2021/04/28 01:00:02;;;;;;;;;;;22.60;33.70;;;;;;1567256;74;851;-63
2021/04/28 01:02:04;;;;;;;;;;;22.60;33.80;;;;;;1564440;74;1133;-63
2021/04/28 01:04:06;;;;;;;;;;;22.60;33.90;;;;;;1571388;74;716;-63
2021/04/28 01:06:08;;;;;;;;;;;22.60;34.00;;;;;;1556381;74;1921;-63
2021/04/28 01:08:10;;;;;;;;;;;22.60;34.10;;;;;;1570490;74;848;-63
2021/04/28 01:10:13;;;;;;;;;;;22.60;34.00;;;;;;1565459;74;749;-64
2021/04/28 01:12:14;;;;;;;;;;;22.60;33.90;;;;;;1570830;74;1160;-62
2021/04/28 01:14:16;;;;;;;;;;;22.60;34.00;;;;;;1570234;74;709;-63
2021/04/28 01:16:18;;;;;;;;;;;22.70;34.20;;;;;;1567641;74;743;-63
2021/04/28 01:18:20;;;;;;;;;;;22.60;34.00;;;;;;1565787;74;777;-64
2021/04/28 01:20:23;;;;;;;;;;;22.60;34.00;;;;;;1565520;74;794;-64
2021/04/28 01:22:24;;;;;;;;;;;22.60;34.00;;;;;;1564816;74;1089;-63
2021/04/28 01:24:26;;;;;;;;;;;22.60;34.00;;;;;;1571360;74;1945;-64
2021/04/28 01:26:28;;;;;;;;;;;22.60;34.00;;;;;;1567544;74;778;-62
2021/04/28 01:28:30;;;;;;;;;;;22.60;34.00;;;;;;1567371;74;871;-65
2021/04/28 01:30:34;;;;;;;;;;;22.60;34.10;;;;;;1563436;74;738;-61
2021/04/28 01:32:36;;;;;;;;;;;22.60;34.00;;;;;;1569002;74;1673;-62
2021/04/28 01:34:38;;;;;;;;;;;22.60;34.00;;;;;;1568470;74;769;-63
2021/04/28 01:36:39;;;;;;;;;;;22.60;34.00;;;;;;1566987;74;707;-63
2021/04/28 01:38:43;;;;;;;;;;;22.60;34.10;;;;;;1572114;74;801;-64
2021/04/28 01:40:45;;;;;;;;;;;22.60;34.20;;;;;;1577224;74;740;-63
2021/04/28 01:42:47;;;;;;;;;;;22.60;34.10;;;;;;1570236;73;218934;-59
2021/04/28 01:44:49;;;;;;;;;;;22.60;34.10;;;;;;1608282;72;1963;-57
2021/04/28 01:46:53;;;;;;;;;;;22.60;34.10;;;;;;1598851;72;766;-56
2021/04/28 01:48:55;;;;;;;;;;;22.60;34.20;;;;;;1598286;72;1546;-57
2021/04/28 01:50:57;;;;;;;;;;;22.60;34.10;;;;;;1572878;74;788;-57
2021/04/28 01:52:59;;;;;;;;;;;22.60;34.20;;;;;;1585504;74;733;-57
2021/04/28 01:55:00;;;;;;;;;;;22.60;34.30;;;;;;1580181;74;768;-57
2021/04/28 01:57:02;;;;;;;;;;;22.60;34.30;;;;;;1573431;74;723;-55
2021/04/28 01:59:04;;;;;;;;;;;22.60;34.20;;;;;;1577989;74;1105;-54
2021/04/28 02:01:07;;;;;;;;;;;22.60;34.20;;;;;;1589259;74;754;-56
2021/04/28 02:03:09;;;;;;;;;;;22.60;34.20;;;;;;1588852;74;839;-55
2021/04/28 02:05:11;;;;;;;;;;;22.60;34.20;;;;;;1592270;74;1940;-57
2021/04/28 02:07:14;;;;;;;;;;;22.50;34.20;;;;;;1596482;74;759;-54
2021/04/28 02:09:16;;;;;;;;;;;22.50;34.40;;;;;;1597796;74;1139;-57
2021/04/28 02:11:18;;;;;;;;;;;22.50;34.60;;;;;;1587651;74;854;-56
2021/04/28 02:13:20;;;;;;;;;;;22.50;34.50;;;;;;1582682;74;676;-56
2021/04/28 02:15:21;;;;;;;;;;;22.50;34.40;;;;;;1584620;74;781;-56
2021/04/28 02:17:23;;;;;;;;;;;22.60;34.40;;;;;;1585542;74;745;-56
2021/04/28 02:19:25;;;;;;;;;;;22.50;34.40;;;;;;1594302;72;1102;-57
2021/04/28 02:21:27;;;;;;;;;;;22.60;34.40;;;;;;1593495;74;748;-57
2021/04/28 02:23:30;;;;;;;;;;;22.60;34.30;;;;;;1578081;74;745;-56
2021/04/28 02:25:32;;;;;;;;;;;22.60;34.30;;;;;;1589218;74;1935;-56
2021/04/28 02:27:34;;;;;;;;;;;22.60;34.20;;;;;;1595301;74;781;-56
2021/04/28 02:29:36;;;;;;;;;;;22.60;34.30;;;;;;1587739;73;1165;-55
2021/04/28 02:31:38;;;;;;;;;;;22.50;34.40;;;;;;1593338;74;818;-55
2021/04/28 02:33:40;;;;;;;;;;;22.50;34.40;;;;;;1585227;74;750;-57
2021/04/28 02:35:42;;;;;;;;;;;22.60;34.60;;;;;;1587498;74;811;-57
2021/04/28 02:37:44;;;;;;;;;;;22.50;34.60;;;;;;1595203;74;742;-57
2021/04/28 02:39:47;;;;;;;;;;;22.50;34.70;;;;;;1594924;74;1110;-57
2021/04/28 02:41:49;;;;;;;;;;;22.50;34.80;;;;;;1575751;74;792;-56
2021/04/28 02:43:51;;;;;;;;;;;22.40;34.80;;;;;;1575964;74;773;-58
2021/04/28 02:45:53;;;;;;;;;;;22.30;34.90;;;;;;1580272;74;1937;-57
2021/04/28 02:47:55;;;;;;;;;;;22.30;35.00;;;;;;1575671;74;803;-57
2021/04/28 02:49:57;;;;;;;;;;;22.30;35.10;;;;;;1573178;74;1124;-57
2021/04/28 02:51:59;;;;;;;;;;;22.30;35.20;;;;;;1572867;74;895;-58
2021/04/28 02:54:01;;;;;;;;;;;22.30;35.30;;;;;;1586887;74;714;-57
2021/04/28 02:56:03;;;;;;;;;;;22.30;35.50;;;;;;1590315;74;771;-57
2021/04/28 02:58:05;;;;;;;;;;;22.20;35.50;;;;;;1573237;74;716;-58
2021/04/28 03:00:08;;;;;;;;;;;22.20;35.80;;;;;;1565165;74;1121;-55
2021/04/28 03:02:09;;;;;;;;;;;22.30;35.90;;;;;;1573769;74;894;-56
2021/04/28 03:04:11;;;;;;;;;;;22.20;36.00;;;;;;1566439;74;644;-57
2021/04/28 03:06:14;;;;;;;;;;;22.20;36.00;;;;;;1571871;74;1909;-57
2021/04/28 03:08:15;;;;;;;;;;;22.20;36.30;;;;;;1572226;74;797;-57
2021/04/28 03:10:17;;;;;;;;;;;22.10;36.20;;;;;;1568447;74;1139;-58
2021/04/28 03:12:19;;;;;;;;;;;22.10;36.30;;;;;;1569842;74;820;-57
2021/04/28 03:14:21;;;;;;;;;;;22.20;36.40;;;;;;1551916;75;820;-57
2021/04/28 03:16:23;;;;;;;;;;;22.10;36.30;;;;;;1570119;74;729;-56
2021/04/28 03:18:25;;;;;;;;;;;22.20;36.30;;;;;;1568310;74;744;-55
2021/04/28 03:20:27;;;;;;;;;;;22.20;36.30;;;;;;1568911;74;1119;-57
2021/04/28 03:22:29;;;;;;;;;;;22.20;36.30;;;;;;1581439;74;761;-57
2021/04/28 03:24:30;;;;;;;;;;;22.10;36.40;;;;;;1583925;74;778;-58
2021/04/28 03:26:32;;;;;;;;;;;22.10;36.40;;;;;;1565889;74;1947;-56
2021/04/28 03:28:34;;;;;;;;;;;22.20;36.40;;;;;;1567287;74;682;-55
2021/04/28 03:30:36;;;;;;;;;;;22.20;36.40;;;;;;1573334;74;1174;-56
2021/04/28 03:32:38;;;;;;;;;;;22.20;36.40;;;;;;1567716;74;811;-55
2021/04/28 03:34:40;;;;;;;;;;;22.20;36.50;;;;;;1574594;74;816;-57
2021/04/28 03:36:42;;;;;;;;;;;22.30;36.80;;;;;;1570074;74;859;-56
2021/04/28 03:38:44;;;;;;;;;;;22.30;37.10;;;;;;1570077;74;724;-56
2021/04/28 03:40:45;;;;;;;;;;;22.30;37.00;;;;;;1577004;74;1119;-57
2021/04/28 03:42:47;;;;;;;;;;;22.30;36.90;;;;;;1573999;74;793;-57
2021/04/28 03:44:51;;;;;;;;;;;22.30;36.70;;;;;;1578153;74;765;-56
2021/04/28 03:46:53;;;;;;;;;;;22.30;36.70;;;;;;1569909;74;1911;-56
2021/04/28 03:48:55;;;;;;;;;;;22.30;36.60;;;;;;1575325;74;851;-56
2021/04/28 03:50:57;;;;;;;;;;;22.20;36.50;;;;;;1579153;74;815;-56
2021/04/28 03:52:59;;;;;;;;;;;22.30;36.70;;;;;;1565315;74;750;-57
2021/04/28 03:55:01;;;;;;;;;;;22.20;36.50;;;;;;1571030;74;751;-57
2021/04/28 03:57:03;;;;;;;;;;;22.30;36.50;;;;;;1571969;74;773;-56
2021/04/28 03:59:05;;;;;;;;;;;22.30;36.50;;;;;;1564396;74;1137;-57
2021/04/28 04:01:06;;;;;;;;;;;22.30;36.60;;;;;;1572349;74;710;-57
2021/04/28 04:03:08;;;;;;;;;;;22.30;36.60;;;;;;1578169;74;772;-57
2021/04/28 04:05:11;;;;;;;;;;;22.20;36.50;;;;;;1580511;74;676;-56
2021/04/28 04:07:13;;;;;;;;;;;22.30;36.70;;;;;;1578218;74;1917;-57
2021/04/28 04:09:14;;;;;;;;;;;22.20;36.50;;;;;;1590856;74;1123;-56
2021/04/28 04:11:16;;;;;;;;;;;22.20;36.50;;;;;;1582846;74;768;-55
2021/04/28 04:13:18;;;;;;;;;;;22.20;36.50;;;;;;1587062;74;799;-57
2021/04/28 04:15:20;;;;;;;;;;;22.20;36.50;;;;;;1590660;74;720;-57
2021/04/28 04:17:22;;;;;;;;;;;22.20;36.50;;;;;;1579887;74;728;-57
2021/04/28 04:19:24;;;;;;;;;;;22.20;36.50;;;;;;1580105;74;1114;-57
2021/04/28 04:21:26;;;;;;;;;;;22.20;36.40;;;;;;1577798;74;861;-57
2021/04/28 04:23:28;;;;;;;;;;;22.30;36.70;;;;;;1578287;74;764;-57
2021/04/28 04:25:30;;;;;;;;;;;22.30;36.60;;;;;;1575960;74;1937;-57
2021/04/28 04:27:33;;;;;;;;;;;22.20;36.50;;;;;;1581329;74;788;-56
2021/04/28 04:29:35;;;;;;;;;;;22.30;36.60;;;;;;1585330;74;1186;-58
2021/04/28 04:31:37;;;;;;;;;;;22.30;36.60;;;;;;1579870;74;868;-58
2021/04/28 04:33:38;;;;;;;;;;;22.30;36.50;;;;;;1573523;74;800;-57
2021/04/28 04:35:40;;;;;;;;;;;22.30;36.40;;;;;;1580455;74;749;-57
2021/04/28 04:37:42;;;;;;;;;;;22.40;36.30;;;;;;1592205;74;765;-56
2021/04/28 04:39:44;;;;;;;;;;;22.30;36.30;;;;;;1581236;74;1147;-57
2021/04/28 04:41:46;;;;;;;;;;;22.30;36.40;;;;;;1585678;74;743;-56
2021/04/28 04:43:48;;;;;;;;;;;22.30;36.40;;;;;;1582890;74;941;-57
2021/04/28 04:45:50;;;;;;;;;;;22.30;36.50;;;;;;1575517;74;1924;-55
2021/04/28 04:47:51;;;;;;;;;;;22.30;36.50;;;;;;1580795;74;753;-56
2021/04/28 04:49:53;;;;;;;;;;;22.30;36.60;;;;;;1577145;74;1144;-57
2021/04/28 04:51:55;;;;;;;;;;;22.30;36.50;;;;;;1580641;74;765;-56
2021/04/28 04:53:57;;;;;;;;;;;22.30;36.70;;;;;;1592637;74;735;-55
2021/04/28 04:55:59;;;;;;;;;;;22.30;36.60;;;;;;1580636;74;886;-56
2021/04/28 04:58:01;;;;;;;;;;;22.30;36.60;;;;;;1584889;74;770;-57
2021/04/28 05:00:09;;;;;;;;;;;22.30;36.50;;;;;;1589135;74;1074;-56
2021/04/28 05:02:11;;;;;;;;;;;22.30;36.50;;;;;;1576704;74;773;-57
2021/04/28 05:04:13;;;;;;;;;;;22.30;36.50;;;;;;1576417;74;735;-57
2021/04/28 05:06:15;;;;;;;;;;;22.30;36.60;;;;;;1594792;74;1942;-56
2021/04/28 05:08:16;;;;;;;;;;;22.30;36.70;;;;;;1546613;75;784;-57
2021/04/28 05:10:18;;;;;;;;;;;22.30;36.60;;;;;;1554263;75;1113;-55
2021/04/28 05:12:20;;;;;;;;;;;22.30;36.70;;;;;;1547723;75;793;-55
2021/04/28 05:14:22;;;;;;;;;;;22.30;36.60;;;;;;1536182;75;753;-57
2021/04/28 05:16:24;;;;;;;;;;;22.30;36.70;;;;;;1545178;75;766;-56
2021/04/28 05:18:26;;;;;;;;;;;22.30;36.50;;;;;;1577203;74;733;-56
2021/04/28 05:20:28;;;;;;;;;;;22.30;36.50;;;;;;1573138;74;1123;-57
2021/04/28 05:22:30;;;;;;;;;;;22.30;36.60;;;;;;1573193;74;1017;-57
2021/04/28 05:24:32;;;;;;;;;;;22.30;36.50;;;;;;1578057;74;769;-57
2021/04/28 05:26:34;;;;;;;;;;;22.40;36.50;;;;;;1573437;74;1945;-57
2021/04/28 05:28:35;;;;;;;;;;;22.40;36.40;;;;;;1566472;74;729;-58
2021/04/28 05:30:37;;;;;;;;;;;22.30;36.50;;;;;;1585115;74;1167;-55
2021/04/28 05:32:42;;;;;;;;;;;22.40;36.70;;;;;;1581036;74;817;-57
2021/04/28 05:34:44;;;;;;;;;;;22.40;37.00;;;;;;1572891;74;773;-56
2021/04/28 05:36:45;;;;;;;;;;;22.50;36.90;;;;;;1576449;74;746;-57
2021/04/28 05:38:47;;;;;;;;;;;22.40;36.60;;;;;;1574365;74;722;-57
2021/04/28 05:40:49;;;;;;;;;;;22.40;36.30;;;;;;1575111;74;1128;-58
2021/04/28 05:42:51;;;;;;;;;;;22.40;36.10;;;;;;1586256;74;710;-58
2021/04/28 05:44:53;;;;;;;;;;;22.50;36.10;;;;;;1570964;74;803;-58
2021/04/28 05:46:55;;;;;;;;;;;22.50;35.80;;;;;;1574623;74;1937;-57
2021/04/28 05:48:57;;;;;;;;;;;22.50;35.60;;;;;;1581125;74;1143;-58
2021/04/28 05:50:58;;;;;;;;;;;22.50;35.50;;;;;;1572381;74;747;-57
2021/04/28 05:53:00;;;;;;;;;;;22.60;35.20;;;;;;1567623;74;746;-57
2021/04/28 05:55:03;;;;;;;;;;;22.60;35.00;;;;;;1566566;74;727;-58
2021/04/28 05:57:05;;;;;;;;;;;22.60;35.00;;;;;;1559428;74;738;-58
2021/04/28 05:59:07;;;;;;;;;;;22.60;35.00;;;;;;1566539;74;1122;-57
2021/04/28 06:01:08;;;;;;;;;;;22.50;35.00;;;;;;1572322;74;724;-57
2021/04/28 06:03:10;;;;;;;;;;;22.50;35.00;;;;;;1579048;74;718;-55
2021/04/28 06:05:12;;;;;;;;;;;22.40;34.90;;;;;;1575550;74;737;-56
2021/04/28 06:07:14;;;;;;;;;;;22.40;35.00;;;;;;1576693;74;1942;-57
2021/04/28 06:09:17;;;;;;;;;;;22.40;35.00;;;;;;1580060;74;1087;-56
2021/04/28 06:11:19;;;;;;;;;;;22.40;35.20;;;;;;1568252;74;738;-57
2021/04/28 06:13:21;;;;;;;;;;;22.50;35.50;;;;;;1575391;74;751;-57
2021/04/28 06:15:23;;;;;;;;;;;22.50;35.50;;;;;;1575780;74;775;-57
2021/04/28 06:17:25;;;;;;;;;;;22.50;35.20;;;;;;1570224;74;755;-57
2021/04/28 06:19:27;;;;;;;;;;;22.50;35.10;;;;;;1573984;74;1147;-57
2021/04/28 06:21:28;;;;;;;;;;;22.50;35.00;;;;;;1586558;74;702;-55
2021/04/28 06:23:30;;;;;;;;;;;22.50;35.00;;;;;;1579050;74;755;-55
2021/04/28 06:25:32;;;;;;;;;;;22.50;34.80;;;;;;1580636;74;749;-58
2021/04/28 06:27:34;;;;;;;;;;;22.60;34.60;;;;;;1576936;74;1938;-57
2021/04/28 06:29:36;;;;;;;;;;;22.50;34.40;;;;;;1565026;74;1144;-57
2021/04/28 06:31:38;;;;;;;;;;;22.50;34.60;;;;;;1584481;74;733;-57
2021/04/28 06:33:44;;;;;;;;;;;22.50;34.30;;;;;;1573940;74;747;-57
2021/04/28 06:35:43;;;;;;;;;;;22.50;34.40;;;;;;1577540;74;1612;-57
2021/04/28 06:37:45;;;;;;;;;;;22.50;34.20;;;;;;1580525;74;742;-57
2021/04/28 06:39:47;;;;;;;;;;;22.50;34.10;;;;;;1583921;74;1145;-57
2021/04/28 06:41:49;;;;;;;;;;;22.60;33.90;;;;;;1578648;74;797;-57
2021/04/28 06:43:51;;;;;;;;;;;22.60;33.70;;;;;;1587315;74;797;-57
2021/04/28 06:45:53;;;;;;;;;;;22.60;33.40;;;;;;1580583;74;782;-57
2021/04/28 06:47:55;;;;;;;;;;;22.60;33.40;;;;;;1579536;74;1945;-57
2021/04/28 06:49:56;;;;;;;;;;;22.70;33.30;;;;;;1586997;74;1169;-57
2021/04/28 06:51:58;;;;;;;;;;;22.70;33.10;;;;;;1579849;74;792;-57
2021/04/28 06:54:00;;;;;;;;;;;22.80;33.10;;;;;;1584107;74;767;-57
2021/04/28 06:56:02;;;;;;;;;;;22.70;33.00;;;;;;1577620;74;800;-57
2021/04/28 06:58:04;;;;;;;;;;;22.80;33.00;;;;;;1590959;74;964;-57
2021/04/28 07:00:06;;;;;;;;;;;22.80;32.80;;;;;;1580647;74;1127;-57
2021/04/28 07:02:08;;;;;;;;;;;22.70;32.80;;;;;;1572129;74;723;-57
2021/04/28 07:04:10;;;;;;;;;;;22.80;31.80;;;;;;1569794;74;780;-57
2021/04/28 07:06:12;;;;;;;;;;;22.80;31.50;;;;;;1579824;74;719;-57
2021/04/28 07:08:14;;;;;;;;;;;22.90;31.40;;;;;;1574100;74;1911;-57
2021/04/28 07:10:16;;;;;;;;;;;22.80;31.00;;;;;;1565822;74;1131;-57
2021/04/28 07:12:18;;;;;;;;;;;22.90;31.10;;;;;;1563377;74;771;-56
2021/04/28 07:14:20;;;;;;;;;;;22.80;31.00;;;;;;1560291;74;908;-57
2021/04/28 07:16:22;;;;;;;;;;;22.90;30.90;;;;;;1581252;74;782;-57
2021/04/28 07:18:24;;;;;;;;;;;22.90;31.00;;;;;;1576302;74;781;-58
2021/04/28 07:20:26;;;;;;;;;;;22.90;30.90;;;;;;1566574;74;1108;-57
2021/04/28 07:22:27;;;;;;;;;;;22.90;30.60;;;;;;1566169;74;781;-57
2021/04/28 07:24:29;;;;;;;;;;;22.90;30.50;;;;;;1587369;74;834;-57
2021/04/28 07:26:31;;;;;;;;;;;22.90;30.70;;;;;;1583536;74;1941;-56
2021/04/28 07:28:33;;;;;;;;;;;22.80;30.60;;;;;;1578871;74;798;-57
2021/04/28 07:30:36;;;;;;;;;;;22.90;30.40;;;;;;1580101;74;1163;-57
2021/04/28 07:32:39;;;;;;;;;;;22.90;30.20;;;;;;1571006;74;690;-56
2021/04/28 07:34:41;;;;;;;;;;;22.90;30.00;;;;;;1566432;74;794;-56
2021/04/28 07:36:44;;;;;;;;;;;22.80;30.00;;;;;;1564963;74;808;-57
2021/04/28 07:38:46;;;;;;;;;;;22.80;30.00;;;;;;1576079;74;715;-57
2021/04/28 07:40:47;;;;;;;;;;;22.80;30.00;;;;;;1569293;74;1116;-56
2021/04/28 07:42:50;;;;;;;;;;;22.80;29.70;;;;;;1572119;72;216817;-62
2021/04/28 07:44:52;;;;;;;;;;;22.80;29.70;;;;;;1567945;74;757;-64
2021/04/28 07:46:54;;;;;;;;;;;22.80;29.40;;;;;;1556650;74;1929;-65
2021/04/28 07:48:56;;;;;;;;;;;22.80;29.50;;;;;;1565331;74;663;-62
2021/04/28 07:51:00;;;;;;;;;;;22.80;29.60;;;;;;1554013;74;828;-64
2021/04/28 07:53:02;;;;;;;;;;;22.80;29.80;;;;;;1554392;74;1434;-65
2021/04/28 07:55:04;;;;;;;;;;;22.90;29.90;;;;;;1553847;74;782;-62
2021/04/28 07:57:06;;;;;;;;;;;23.00;30.20;;;;;;1554785;74;728;-63
2021/04/28 07:59:08;;;;;;;;;;;23.00;29.80;;;;;;1554957;74;673;-63
2021/04/28 08:01:10;;;;;;;;;;;23.10;29.90;;;;;;1556780;74;750;-62
2021/04/28 08:03:12;;;;;;;;;;;23.10;29.90;;;;;;1556976;74;1111;-62
2021/04/28 08:05:14;;;;;;;;;;;23.00;29.70;;;;;;1552768;74;749;-62
2021/04/28 08:07:16;;;;;;;;;;;23.00;29.40;;;;;;1553079;75;1920;-60
2021/04/28 08:09:18;;;;;;;;;;;23.10;29.40;;;;;;1537619;75;747;-61
2021/04/28 08:11:19;;;;;;;;;;;23.00;29.40;;;;;;1559280;73;699;-63
2021/04/28 08:13:21;;;;;;;;;;;23.10;29.50;;;;;;1531078;74;1134;-63
2021/04/28 08:15:23;;;;;;;;;;;23.00;29.40;;;;;;1555255;74;748;-64
2021/04/28 08:17:25;;;;;;;;;;;23.10;29.50;;;;;;1559392;74;869;-63
2021/04/28 08:19:27;;;;;;;;;;;23.10;29.40;;;;;;1568890;74;789;-63
2021/04/28 08:21:29;;;;;;;;;;;23.10;29.50;;;;;;1557401;74;766;-63
2021/04/28 08:23:31;;;;;;;;;;;23.10;29.50;;;;;;1567526;74;1156;-63
2021/04/28 08:25:33;;;;;;;;;;;23.10;29.60;;;;;;1562439;74;824;-62
2021/04/28 08:27:35;;;;;;;;;;;23.10;29.50;;;;;;1560891;74;1912;-64
2021/04/28 08:29:37;;;;;;;;;;;23.10;29.50;;;;;;1551378;74;721;-63
2021/04/28 08:31:39;;;;;;;;;;;23.10;29.60;;;;;;1553094;74;774;-63
2021/04/28 08:33:41;;;;;;;;;;;23.10;29.60;;;;;;1565810;74;1193;-62
2021/04/28 08:35:43;;;;;;;;;;;23.10;29.60;;;;;;1552776;74;845;-63
2021/04/28 08:37:45;;;;;;;;;;;23.10;29.50;;;;;;1565248;74;812;-63
2021/04/28 08:39:48;;;;;;;;;;;23.10;29.50;;;;;;1559683;74;892;-62
2021/04/28 08:41:51;;;;;;;;;;;23.10;29.50;;;;;;1570401;74;707;-63
2021/04/28 08:43:53;;;;;;;;;;;23.10;29.50;;;;;;1560519;74;1086;-63
2021/04/28 08:45:55;;;;;;;;;;;23.10;29.30;;;;;;1557677;74;713;-62
2021/04/28 08:47:57;;;;;;;;;;;23.10;29.20;;;;;;1561566;74;1925;-62
2021/04/28 08:49:58;;;;;;;;;;;23.20;29.30;;;;;;1560417;74;874;-62
2021/04/28 08:52:01;;;;;;;;;;;23.10;29.30;;;;;;1557217;74;727;-63
2021/04/28 08:54:03;;;;;;;;;;;23.10;29.30;;;;;;1557220;74;1166;-63
2021/04/28 08:56:06;;;;;;;;;;;23.10;29.40;;;;;;1554906;74;780;-62
2021/04/28 08:58:08;;;;;;;;;;;23.10;29.40;;;;;;1556710;74;820;-63
2021/04/28 09:00:10;;;;;;;;;;;23.10;29.40;;;;;;1551838;74;692;-65
2021/04/28 09:02:28;;;;;;;;;;;23.10;29.50;;;;;;1565356;74;802;-64
2021/04/28 09:04:30;;;;;;;;;;;23.00;29.40;;;;;;1559623;74;1138;-62
2021/04/28 09:06:35;;;;;;;;;;;23.10;29.40;;;;;;1556115;74;842;-62
2021/04/28 09:08:38;;;;;;;;;;;23.00;29.50;;;;;;1548615;75;1939;-64
2021/04/28 09:10:41;;;;;;;;;;;23.00;29.40;;;;;;1556764;74;2109;-61
2021/04/28 09:12:44;;;;;;;;;;;23.00;29.50;;;;;;1558823;74;1154;-62
2021/04/28 09:14:46;;;;;;;;;;;23.00;29.60;;;;;;1558457;74;1716;-62
2021/04/28 09:16:49;;;;;;;;;;;23.10;29.70;;;;;;1563805;74;731;-61
2021/04/28 09:18:51;;;;;;;;;;;23.10;29.40;;;;;;1549069;74;1560;-61
2021/04/28 09:20:55;;;;;;;;;;;23.00;29.40;;;;;;1557380;74;807;-63
2021/04/28 09:23:08;;;;;;;;;;;22.90;29.60;;;;;;1557518;74;1144;-61
2021/04/28 09:25:09;;;;;;;;;;;23.00;29.70;;;;;;1562347;74;686;-63
2021/04/28 09:27:13;;;;;;;;;;;23.00;29.50;;;;;;1559550;74;1935;-62
2021/04/28 09:29:16;;;;;;;;;;;23.00;29.70;;;;;;1542535;74;1517;-62
2021/04/28 09:31:19;;;;;;;;;;;23.10;29.70;;;;;;1555687;74;825;-61
2021/04/28 09:33:21;;;;;;;;;;;23.10;29.60;;;;;;1559638;74;1171;-62
2021/04/28 09:35:24;;;;;;;;;;;23.00;29.40;;;;;;1559840;74;695;-62
2021/04/28 09:37:26;;;;;;;;;;;23.00;29.50;;;;;;1563497;74;684;-63
2021/04/28 09:39:29;;;;;;;;;;;23.10;29.60;;;;;;1576504;74;713;-66
2021/04/28 09:41:32;;;;;;;;;;;23.20;29.40;;;;;;1571710;74;795;-64
2021/04/28 09:43:37;;;;;;;;;;;23.10;29.10;;;;;;1568149;74;1156;-62
2021/04/28 09:45:39;;;;;;;;;;;23.00;28.70;;;;;;1559710;74;768;-63
2021/04/28 09:47:41;;;;;;;;;;;23.10;29.00;;;;;;1562312;74;1919;-65
2021/04/28 09:49:58;;;;;;;;;;;23.00;29.10;;;;;;1563895;74;763;-64
2021/04/28 09:52:02;;;;;;;;;;;23.00;29.20;;;;;;1563250;75;757;-62
2021/04/28 09:54:11;;;;;;;;;;;22.90;29.40;;;;;;1563413;75;1662;-64
2021/04/28 09:56:16;;;;;;;;;;;22.90;29.20;;;;;;1565537;74;1044;-62
2021/04/28 09:58:49;;;;;;;;;;;22.90;29.10;;;;;;1559475;74;743;-62
2021/04/28 10:01:00;;;;;;;;;;;23.00;29.00;;;;;;1555846;74;792;-61
2021/04/28 10:03:02;;;;;;;;;;;23.00;29.00;;;;;;1564821;74;1130;-60
2021/04/28 10:05:23;;;;;;;;;;;22.90;29.20;;;;;;1565361;74;963;-62
2021/04/28 10:07:25;;;;;;;;;;;22.90;29.20;;;;;;1557366;74;1912;-62
2021/04/28 10:09:36;;;;;;;;;;;22.80;29.00;;;;;;1574713;74;851;-62
2021/04/28 10:11:38;;;;;;;;;;;22.80;29.10;;;;;;1551986;74;730;-62
2021/04/28 10:13:41;;;;;;;;;;;22.80;29.00;;;;;;1552161;74;1191;-63
2021/04/28 10:15:44;;;;;;;;;;;22.70;28.80;;;;;;1542588;74;780;-62
2021/04/28 10:17:46;;;;;;;;;;;22.90;29.00;;;;;;1560420;74;733;-62
2021/04/28 10:19:48;;;;;;;;;;;22.90;29.20;;;;;;1550935;74;815;-62
2021/04/28 10:21:51;;;;;;;;;;;22.80;28.60;;;;;;1557043;74;810;-62
2021/04/28 10:23:54;;;;;;;;;;;22.90;28.90;;;;;;1564746;74;1148;-63
2021/04/28 10:25:56;;;;;;;;;;;23.00;28.90;;;;;;1557665;74;856;-62
2021/04/28 10:27:58;;;;;;;;;;;22.90;28.70;;;;;;1563582;74;1953;-62
2021/04/28 10:30:00;;;;;;;;;;;22.70;28.80;;;;;;1562117;74;1080;-62
2021/04/28 10:32:02;;;;;;;;;;;22.60;28.80;;;;;;1563012;75;865;-62
2021/04/28 10:34:05;;;;;;;;;;;22.60;29.00;;;;;;1556590;74;1153;-63
2021/04/28 10:36:07;;;;;;;;;;;22.50;29.20;;;;;;1559386;74;694;-62
2021/04/28 10:38:09;;;;;;;;;;;22.60;29.40;;;;;;1572993;74;727;-62
2021/04/28 10:40:15;;;;;;;;;;;22.60;29.10;;;;;;1572932;74;783;-63
2021/04/28 10:42:34;;;;;;;;;;;22.60;29.10;;;;;;1570720;74;769;-62
2021/04/28 10:44:37;;;;;;;;;;;22.70;29.00;;;;;;1560351;74;1104;-63
2021/04/28 10:46:39;;;;;;;;;;;22.70;28.90;;;;;;1565744;74;773;-63
2021/04/28 10:48:41;;;;;;;;;;;22.70;28.90;;;;;;1572367;74;1959;-60
2021/04/28 10:50:45;;;;;;;;;;;22.90;29.10;;;;;;1560925;75;798;-64
2021/04/28 10:52:49;;;;;;;;;;;22.90;29.10;;;;;;1554402;74;1181;-60
2021/04/28 10:54:56;;;;;;;;;;;22.90;29.20;;;;;;1566459;74;839;-64
2021/04/28 10:57:05;;;;;;;;;;;22.80;28.90;;;;;;1568063;74;782;-64
2021/04/28 10:59:07;;;;;;;;;;;22.70;29.20;;;;;;1564089;74;745;-62
2021/04/28 11:01:12;;;;;;;;;;;22.70;29.30;;;;;;1534529;76;1089;-62
2021/04/28 11:03:33;;;;;;;;;;;22.60;29.40;;;;;;1558710;75;1141;-63
2021/04/28 11:05:35;;;;;;;;;;;22.60;30.30;;;;;;1556997;74;789;-64
2021/04/28 11:07:40;;;;;;;;;;;22.80;29.60;;;;;;1559798;74;777;-63
2021/04/28 11:09:42;;;;;;;;;;;22.80;28.90;;;;;;1561681;74;1889;-63
2021/04/28 11:11:45;;;;;;;;;;;22.90;28.80;;;;;;1558706;74;803;-63
2021/04/28 11:13:49;;;;;;;;;;;22.80;28.10;;;;;;1556071;74;1177;-63
2021/04/28 11:15:54;;;;;;;;;;;22.80;28.10;;;;;;1552006;74;1680;-63
2021/04/28 11:17:57;;;;;;;;;;;22.80;28.50;;;;;;1551165;74;765;-63
2021/04/28 11:20:01;;;;;;;;;;;22.80;28.50;;;;;;1556434;74;1725;-62
2021/04/28 11:22:10;;;;;;;;;;;22.80;28.60;;;;;;1548754;74;2124;-65
2021/04/28 11:24:14;;;;;;;;;;;22.80;28.10;;;;;;1555223;74;1135;-62
2021/04/28 11:26:26;;;;;;;;;;;22.60;28.30;;;;;;1560767;74;1118;-64
2021/04/28 11:28:29;;;;;;;;;;;22.60;28.30;;;;;;1555846;74;1917;-63
2021/04/28 11:30:38;;;;;;;;;;;22.40;28.00;;;;;;1536545;74;1858;-63
2021/04/28 11:32:40;;;;;;;;;;;22.30;28.90;;;;;;1562603;74;954;-63
2021/04/28 11:34:42;;;;;;;;;;;22.40;28.90;;;;;;1562637;74;675;-62
2021/04/28 11:36:48;;;;;;;;;;;22.20;28.40;;;;;;1564246;74;776;-63
2021/04/28 11:38:50;;;;;;;;;;;22.20;28.60;;;;;;1566079;74;1780;-64
2021/04/28 11:41:08;;;;;;;;;;;22.30;29.20;;;;;;1562905;74;760;-63
2021/04/28 11:43:00;;;;;;;;;;;22.40;29.20;;;;;;1560543;74;1644;-64
2021/04/28 11:45:03;;;;;;;;;;;22.40;29.40;;;;;;1559004;75;801;-65
2021/04/28 11:47:12;;;;;;;;;;;22.40;29.20;;;;;;1562648;74;849;-61
2021/04/28 11:49:14;;;;;;;;;;;22.30;28.40;;;;;;1559532;74;1939;-63
2021/04/28 11:51:17;;;;;;;;;;;22.10;27.00;;;;;;1527775;76;1019;-65
2021/04/28 11:53:19;;;;;;;;;;;21.90;28.60;;;;;;1553026;74;1165;-63
2021/04/28 11:55:22;;;;;;;;;;;22.00;29.10;;;;;;1564085;74;720;-64
2021/04/28 11:57:29;;;;;;;;;;;22.00;29.70;;;;;;1565213;74;833;-63
2021/04/28 11:59:32;;;;;;;;;;;21.90;28.60;;;;;;1572573;74;963;-63
2021/04/28 12:01:38;;;;;;;;;;;21.80;29.20;;;;;;1557500;74;695;-63
2021/04/28 12:03:50;;;;;;;;;;;21.80;29.40;;;;;;1554688;74;1155;-64
2021/04/28 12:05:52;;;;;;;;;;;21.90;28.80;;;;;;1553526;74;826;-64
2021/04/28 12:07:54;;;;;;;;;;;21.80;28.60;;;;;;1553555;74;764;-65
2021/04/28 12:09:56;;;;;;;;;;;21.80;28.60;;;;;;1555586;74;1954;-64
2021/04/28 12:12:08;;;;;;;;;;;21.80;28.70;;;;;;1562585;74;1063;-65